Time;durP1;ratioP1;P1;durP2;ratioP2;P2;SDS_P1;SDS_P2;PMS_P1;PMS_P2;Temp;Humidity;BMP_temperature;BMP_pressure;BME280_temperature;BME280_humidity;BME280_pressure;Samples;Min_cycle;Max_cycle;Signal;HPM_P1;HPM_P2
2022/01/16 00:00:57;;;;;;;4.47;3.85;;;4.60;99.90;;;;;;5051154;28;20190;-69
2022/01/16 00:06:28;;;;;;;5.57;4.78;;;4.60;99.90;;;;;;4997778;28;20218;-69
2022/01/16 00:08:56;;;;;;;4.60;4.10;;;4.60;99.90;;;;;;4982014;28;20397;-69
2022/01/16 00:11:25;;;;;;;5.30;4.72;;;4.60;99.90;;;;;;5022685;28;20250;-69
2022/01/16 00:13:53;;;;;;;4.90;3.70;;;4.60;99.90;;;;;;5032946;28;20244;-69
2022/01/16 00:16:21;;;;;;;6.75;5.20;;;4.60;99.90;;;;;;5047657;28;20270;-69
2022/01/16 00:18:52;;;;;;;5.10;4.28;;;4.60;99.90;;;;;;5042594;28;20212;-69
2022/01/16 00:21:22;;;;;;;6.18;4.43;;;4.60;99.90;;;;;;5047986;28;20226;-69
2022/01/16 00:23:51;;;;;;;4.22;3.72;;;4.60;99.90;;;;;;5049486;28;20270;-69
2022/01/16 00:26:21;;;;;;;5.43;4.10;;;4.60;99.90;;;;;;5051154;28;20624;-69
2022/01/16 00:28:50;;;;;;;4.30;3.90;;;4.60;99.90;;;;;;5050758;28;20278;-69
2022/01/16 00:31:20;;;;;;;5.40;4.07;;;4.60;99.90;;;;;;5049218;28;20236;-69
2022/01/16 00:33:48;;;;;;;4.95;3.88;;;4.60;99.90;;;;;;5048012;28;20223;-69
2022/01/16 00:36:20;;;;;;;4.63;3.92;;;4.60;99.90;;;;;;5038439;28;20262;-69
2022/01/16 00:38:49;;;;;;;3.45;3.15;;;4.60;99.90;;;;;;5051568;28;20378;-69
2022/01/16 00:41:19;;;;;;;4.38;3.97;;;4.60;99.90;;;;;;5051433;28;20203;-69
2022/01/16 00:43:47;;;;;;;4.55;3.75;;;4.60;99.90;;;;;;5051480;28;20231;-69
2022/01/16 00:46:16;;;;;;;3.45;3.15;;;4.60;99.90;;;;;;5050861;28;20216;-69
2022/01/16 00:48:44;;;;;;;4.60;4.10;;;4.60;99.90;;;;;;5050622;28;20273;-69
2022/01/16 00:51:13;;;;;;;4.28;3.47;;;4.60;99.90;;;;;;5051521;28;20271;-69
2022/01/16 00:53:43;;;;;;;3.95;3.55;;;4.60;99.90;;;;;;5049829;28;20688;-69
2022/01/16 00:56:11;;;;;;;4.53;3.67;;;4.60;99.90;;;;;;5044967;28;20274;-69
2022/01/16 00:58:40;;;;;;;4.10;3.40;;;4.60;99.90;;;;;;5050446;28;20266;-69
2022/01/16 01:01:08;;;;;;;3.88;3.38;;;4.60;99.90;;;;;;5050411;28;20192;-69
2022/01/16 01:03:38;;;;;;;4.13;3.45;;;4.60;99.90;;;;;;5051665;28;20240;-69
2022/01/16 01:06:06;;;;;;;4.13;3.72;;;4.60;99.90;;;;;;5050995;28;20200;-69
2022/01/16 01:08:35;;;;;;;6.10;3.72;;;4.60;99.90;;;;;;5049637;28;20254;-69
2022/01/16 01:11:09;;;;;;;4.10;3.70;;;4.60;99.90;;;;;;5040755;28;20189;-69
2022/01/16 01:13:56;;;;;;;4.47;3.90;;;4.60;99.90;;;;;;5049646;28;20227;-69
2022/01/16 01:16:25;;;;;;;4.78;3.42;;;4.60;99.90;;;;;;5025783;28;20216;-69
2022/01/16 01:18:53;;;;;;;6.05;3.88;;;4.60;99.90;;;;;;5049532;28;20943;-69
2022/01/16 01:21:28;;;;;;;4.13;3.72;;;4.60;99.90;;;;;;5050434;28;20267;-69
2022/01/16 01:23:57;;;;;;;3.45;2.63;;;4.60;99.90;;;;;;5031183;28;20216;-69
2022/01/16 01:26:33;;;;;;;4.35;3.83;;;4.60;99.90;;;;;;5049899;28;20239;-69
2022/01/16 01:29:01;;;;;;;3.67;3.25;;;4.60;99.90;;;;;;5042889;28;20963;-69
2022/01/16 01:31:30;;;;;;;4.47;3.63;;;4.60;99.90;;;;;;5050041;28;20234;-69
2022/01/16 01:34:01;;;;;;;3.60;3.30;;;4.60;99.90;;;;;;5049587;28;20314;-69
2022/01/16 01:36:29;;;;;;;3.80;3.50;;;4.60;99.90;;;;;;5050101;28;20247;-69
2022/01/16 01:38:58;;;;;;;3.40;3.10;;;4.60;99.90;;;;;;5049008;28;20220;-69
2022/01/16 01:41:29;;;;;;;3.60;3.30;;;4.60;99.90;;;;;;5049633;28;20646;-69
2022/01/16 01:52:16;;;;;;;5.45;3.90;;;4.60;99.90;;;;;;5050052;28;20188;-69
2022/01/16 01:54:44;;;;;;;3.95;3.65;;;4.60;99.90;;;;;;5048833;28;20311;-69
2022/01/16 01:57:15;;;;;;;3.67;3.05;;;4.60;99.90;;;;;;5048949;28;20242;-69
2022/01/16 01:59:43;;;;;;;4.03;3.50;;;4.60;99.90;;;;;;5048596;28;20220;-69
2022/01/16 02:02:11;;;;;;;4.22;3.72;;;4.60;99.90;;;;;;5049334;28;20242;-69
2022/01/16 02:04:40;;;;;;;4.20;3.25;;;4.60;99.90;;;;;;5051023;28;20270;-69
2022/01/16 02:07:08;;;;;;;7.53;4.15;;;4.60;99.90;;;;;;5051479;28;20224;-69
2022/01/16 02:09:38;;;;;;;6.32;5.72;;;4.60;99.90;;;;;;5049538;28;20217;-69
2022/01/16 02:12:07;;;;;;;4.38;3.67;;;4.60;99.90;;;;;;5049046;28;20189;-69
2022/01/16 02:14:53;;;;;;;6.72;4.40;;;4.60;99.90;;;;;;5031651;28;20633;-69
2022/01/16 02:28:59;;;;;;;6.43;4.68;;;4.60;99.90;;;;;;5038941;28;20641;-69
2022/01/16 02:31:26;;;;;;;5.22;4.40;;;4.60;99.90;;;;;;5048811;28;20219;-69
2022/01/16 02:36:46;;;;;;;5.03;3.95;;;4.60;99.90;;;;;;5049468;28;20617;-69
2022/01/16 02:39:17;;;;;;;4.47;4.07;;;4.60;99.90;;;;;;5048330;28;20220;-69
2022/01/16 02:41:46;;;;;;;6.47;5.60;;;4.60;99.90;;;;;;5047198;28;20204;-69
2022/01/16 02:44:23;;;;;;;8.45;5.70;;;4.60;99.90;;;;;;5048179;28;20228;-69
2022/01/16 02:46:51;;;;;;;5.97;4.10;;;4.60;99.90;;;;;;5030737;28;20212;-69
2022/01/16 02:49:22;;;;;;;5.75;4.75;;;4.60;99.90;;;;;;5048471;28;20228;-69
2022/01/16 02:51:52;;;;;;;6.70;5.10;;;4.60;99.90;;;;;;5048970;28;20184;-69
2022/01/16 02:54:22;;;;;;;5.35;4.07;;;4.60;99.90;;;;;;5047882;28;20265;-69
2022/01/16 02:56:51;;;;;;;6.40;4.90;;;4.60;99.90;;;;;;5048543;28;20217;-69
2022/01/16 02:59:21;;;;;;;5.57;4.75;;;4.60;99.90;;;;;;5030518;28;20212;-69
2022/01/16 03:01:50;;;;;;;6.15;5.03;;;4.60;99.90;;;;;;5048545;28;21730;-69
2022/01/16 03:04:19;;;;;;;5.93;5.28;;;4.60;99.90;;;;;;5048051;28;20710;-69
2022/01/16 03:06:47;;;;;;;7.28;5.43;;;4.60;99.90;;;;;;5048768;28;20220;-69
2022/01/16 03:09:16;;;;;;;7.22;4.75;;;4.60;99.90;;;;;;5045280;28;20208;-69
2022/01/16 03:11:48;;;;;;;9.70;6.70;;;4.60;99.90;;;;;;5048201;28;20254;-69
2022/01/16 03:14:18;;;;;;;8.35;5.85;;;4.60;99.90;;;;;;5047911;28;20273;-69
2022/01/16 03:16:50;;;;;;;9.43;6.30;;;4.60;99.90;;;;;;5042025;28;20205;-69
2022/01/16 03:22:06;;;;;;;6.38;5.15;;;4.60;99.90;;;;;;5039445;28;20729;-69
2022/01/16 03:24:37;;;;;;;9.05;5.97;;;4.60;99.90;;;;;;5037362;28;20621;-69
2022/01/16 03:27:09;;;;;;;6.88;5.05;;;4.60;99.90;;;;;;5041667;28;20216;-69
2022/01/16 03:29:38;;;;;;;6.35;5.32;;;4.50;99.90;;;;;;5048973;28;20281;-69
2022/01/16 03:32:08;;;;;;;7.95;5.40;;;4.60;99.90;;;;;;5043094;28;20283;-69
2022/01/16 03:34:36;;;;;;;8.10;5.78;;;4.60;99.90;;;;;;5049051;28;20281;-69
2022/01/16 03:37:05;;;;;;;8.55;5.88;;;4.60;99.90;;;;;;5053359;28;20212;-69
2022/01/16 03:39:34;;;;;;;7.05;5.80;;;4.60;99.90;;;;;;5052377;28;20247;-69
2022/01/16 03:42:02;;;;;;;7.20;5.30;;;4.60;99.90;;;;;;5052398;28;20199;-69
2022/01/16 03:44:31;;;;;;;13.43;8.73;;;4.60;99.90;;;;;;5053181;28;20220;-69
2022/01/16 03:47:00;;;;;;;12.82;8.38;;;4.60;99.90;;;;;;5033776;28;20223;-69
2022/01/16 03:49:31;;;;;;;9.82;6.57;;;4.60;99.90;;;;;;5051358;28;20683;-69
2022/01/16 03:52:00;;;;;;;9.57;7.97;;;4.60;99.90;;;;;;5032304;28;20198;-69
2022/01/16 03:54:30;;;;;;;10.95;6.15;;;4.60;99.90;;;;;;5032180;28;20229;-69
2022/01/16 03:56:59;;;;;;;6.97;5.60;;;4.50;99.90;;;;;;5018406;28;20224;-69
2022/01/16 03:59:27;;;;;;;9.30;6.10;;;4.60;99.90;;;;;;5051230;28;20220;-69
2022/01/16 04:01:56;;;;;;;15.80;9.98;;;4.50;99.90;;;;;;5047545;28;20192;-69
2022/01/16 04:04:25;;;;;;;12.77;7.75;;;4.60;99.90;;;;;;5042487;28;20858;-69
2022/01/16 04:06:53;;;;;;;18.02;12.98;;;4.60;99.90;;;;;;5044039;28;20462;-69
2022/01/16 04:09:21;;;;;;;11.93;8.70;;;4.60;99.90;;;;;;5048975;28;20259;-69
2022/01/16 04:11:52;;;;;;;13.35;9.18;;;4.60;99.90;;;;;;5041160;28;20277;-69
2022/01/16 04:15:31;;;;;;;9.18;7.63;;;4.50;99.90;;;;;;5038833;28;20219;-69
2022/01/16 04:17:12;;;;;;;10.68;6.68;;;4.60;99.90;;;;;;5032776;28;20299;-69
2022/01/16 04:19:40;;;;;;;9.93;6.95;;;4.60;99.90;;;;;;5043851;28;20271;-69
2022/01/16 04:22:10;;;;;;;18.63;10.93;;;4.50;99.90;;;;;;5035685;28;20197;-69
2022/01/16 04:24:38;;;;;;;10.40;6.65;;;4.60;99.90;;;;;;5045947;28;20645;-69
2022/01/16 04:27:08;;;;;;;8.30;6.25;;;4.50;99.90;;;;;;5050507;28;20270;-69
2022/01/16 04:29:36;;;;;;;16.30;10.80;;;4.50;99.90;;;;;;5048941;28;20271;-69
2022/01/16 04:32:05;;;;;;;11.93;8.70;;;4.50;99.90;;;;;;5047982;28;20188;-69
2022/01/16 04:34:34;;;;;;;11.63;6.93;;;4.50;99.90;;;;;;5042344;28;20221;-69
2022/01/16 04:37:03;;;;;;;12.05;8.88;;;4.60;99.90;;;;;;5044057;28;20289;-69
2022/01/16 04:39:33;;;;;;;14.77;9.05;;;4.50;99.90;;;;;;5033223;28;20228;-69
2022/01/16 04:44:49;;;;;;;12.35;7.88;;;4.60;99.90;;;;;;5035559;28;20236;-69
2022/01/16 04:47:20;;;;;;;11.45;7.68;;;4.50;99.90;;;;;;5046060;28;20768;-69
2022/01/16 04:49:49;;;;;;;11.65;8.02;;;4.50;99.90;;;;;;5050697;28;20220;-69
2022/01/16 04:52:17;;;;;;;12.02;7.72;;;4.50;99.90;;;;;;5044795;28;20197;-69
2022/01/16 04:54:45;;;;;;;17.63;11.45;;;4.50;99.90;;;;;;5036780;28;20734;-69
2022/01/16 04:57:14;;;;;;;11.88;7.97;;;4.50;99.90;;;;;;5036066;28;20219;-69
2022/01/16 04:59:42;;;;;;;12.73;7.93;;;4.50;99.90;;;;;;5035420;28;20209;-69
2022/01/16 05:02:10;;;;;;;8.85;7.00;;;4.50;99.90;;;;;;5044459;28;20189;-69
2022/01/16 05:04:38;;;;;;;12.57;8.13;;;4.50;99.90;;;;;;5042040;28;20587;-69
2022/01/16 05:07:08;;;;;;;11.77;7.82;;;4.50;99.90;;;;;;5043413;28;21048;-69
2022/01/16 05:09:36;;;;;;;13.82;9.02;;;4.50;99.90;;;;;;5046092;28;20733;-69
2022/01/16 05:12:11;;;;;;;12.80;8.40;;;4.60;99.90;;;;;;5048123;28;20659;-69
2022/01/16 05:17:24;;;;;;;15.52;8.93;;;4.50;99.90;;;;;;5036773;28;20585;-69
2022/01/16 05:19:53;;;;;;;12.95;8.77;;;4.50;99.90;;;;;;5043639;28;20212;-69
2022/01/16 05:22:22;;;;;;;12.25;9.60;;;4.50;99.90;;;;;;5032394;28;20228;-69
2022/01/16 05:24:50;;;;;;;13.93;8.55;;;4.50;99.90;;;;;;5045028;28;20220;-69
2022/01/16 05:27:19;;;;;;;14.05;8.48;;;4.50;99.90;;;;;;5044508;28;20217;-69
2022/01/16 05:29:47;;;;;;;14.73;9.50;;;4.50;99.90;;;;;;5030359;28;20726;-69
2022/01/16 05:32:16;;;;;;;14.65;10.45;;;4.50;99.90;;;;;;5041574;28;20189;-69
2022/01/16 05:34:44;;;;;;;11.10;7.60;;;4.50;99.90;;;;;;5042068;28;20216;-69
2022/01/16 05:37:13;;;;;;;14.07;9.30;;;4.50;99.90;;;;;;5047235;28;20217;-69
2022/01/16 05:39:44;;;;;;;16.90;10.02;;;4.50;99.90;;;;;;5030867;28;20767;-69
2022/01/16 05:42:15;;;;;;;16.02;10.68;;;4.50;99.90;;;;;;5041613;28;20246;-69
2022/01/16 05:44:43;;;;;;;11.68;8.38;;;4.50;99.90;;;;;;5047204;28;20243;-69
2022/01/16 05:47:12;;;;;;;18.63;10.13;;;4.50;99.90;;;;;;5044550;28;20749;-69
2022/01/16 05:49:42;;;;;;;10.88;7.68;;;4.50;99.90;;;;;;5038487;28;20621;-69
2022/01/16 05:52:12;;;;;;;10.50;7.78;;;4.50;99.90;;;;;;5036628;28;20196;-69
2022/01/16 05:54:41;;;;;;;15.68;8.75;;;4.50;99.90;;;;;;5030467;28;20224;-69
2022/01/16 05:57:10;;;;;;;13.32;9.50;;;4.50;99.90;;;;;;5048860;28;20238;-69
2022/01/16 05:59:42;;;;;;;15.40;9.77;;;4.50;99.90;;;;;;5043276;28;20227;-69
2022/01/16 06:02:11;;;;;;;13.02;9.45;;;4.50;99.90;;;;;;5040223;28;20589;-69
2022/01/16 06:04:39;;;;;;;17.10;11.13;;;4.50;99.90;;;;;;5032003;28;20220;-69
2022/01/16 06:07:07;;;;;;;13.38;8.50;;;4.50;99.90;;;;;;5048267;28;20212;-69
2022/01/16 06:09:35;;;;;;;13.60;9.50;;;4.50;99.90;;;;;;5044684;28;20270;-69
2022/01/16 06:12:05;;;;;;;12.23;8.77;;;4.50;99.90;;;;;;5031531;28;20216;-69
2022/01/16 06:14:34;;;;;;;16.77;10.35;;;4.50;99.90;;;;;;5044400;28;20220;-69
2022/01/16 06:17:02;;;;;;;13.48;9.07;;;4.50;99.90;;;;;;5037890;28;20699;-69
2022/01/16 06:19:30;;;;;;;14.80;9.98;;;4.50;99.90;;;;;;5034321;28;20217;-69
2022/01/16 06:21:58;;;;;;;15.30;11.10;;;4.50;99.90;;;;;;5031181;28;20448;-69
2022/01/16 06:24:26;;;;;;;14.07;9.43;;;4.50;99.90;;;;;;5049815;28;20274;-69
2022/01/16 06:26:54;;;;;;;17.67;12.05;;;4.50;99.90;;;;;;5046549;28;20208;-69
2022/01/16 06:29:24;;;;;;;15.02;9.88;;;4.50;99.90;;;;;;5029081;28;20220;-69
2022/01/16 06:31:55;;;;;;;12.88;8.80;;;4.50;99.90;;;;;;5041107;28;20202;-69
2022/01/16 06:34:23;;;;;;;16.83;11.02;;;4.50;99.90;;;;;;5037939;28;20229;-69
2022/01/16 06:36:51;;;;;;;10.98;8.35;;;4.50;99.90;;;;;;5039957;28;20287;-69
2022/01/16 06:39:19;;;;;;;14.70;9.85;;;4.50;99.90;;;;;;5047018;28;20220;-69
2022/01/16 06:41:47;;;;;;;11.70;8.80;;;4.50;99.90;;;;;;5040901;28;20296;-69
2022/01/16 06:44:37;;;;;;;12.70;9.20;;;4.50;99.90;;;;;;5029253;28;20235;-69
2022/01/16 06:47:05;;;;;;;13.88;9.52;;;4.50;99.90;;;;;;5040997;28;20217;-69
2022/01/16 06:49:34;;;;;;;11.73;9.07;;;4.50;99.90;;;;;;5040409;28;20225;-69
2022/01/16 06:52:02;;;;;;;14.27;10.13;;;4.50;99.90;;;;;;5041574;28;20732;-69
2022/01/16 06:54:30;;;;;;;16.15;10.65;;;4.50;99.90;;;;;;5041241;28;20213;-69
2022/01/16 06:57:00;;;;;;;18.90;10.35;;;4.50;99.90;;;;;;5037962;28;20699;-69
2022/01/16 06:59:28;;;;;;;17.33;11.82;;;4.50;99.90;;;;;;5041018;28;20804;-69
2022/01/16 07:01:58;;;;;;;14.55;10.52;;;4.50;99.90;;;;;;5037663;28;20661;-69
2022/01/16 07:04:27;;;;;;;11.65;7.90;;;4.50;99.90;;;;;;5049999;28;20227;-69
2022/01/16 07:06:55;;;;;;;17.02;11.27;;;4.50;99.90;;;;;;5051440;28;20212;-69
2022/01/16 07:09:23;;;;;;;15.55;8.48;;;4.50;99.90;;;;;;5052343;28;20368;-69
2022/01/16 07:11:51;;;;;;;11.80;8.32;;;4.50;99.90;;;;;;5052057;28;20772;-69
2022/01/16 07:14:19;;;;;;;16.13;10.13;;;4.50;99.90;;;;;;5051994;28;20779;-69
2022/01/16 07:16:47;;;;;;;14.98;11.18;;;4.50;99.90;;;;;;5052041;28;20226;-69
2022/01/16 07:19:17;;;;;;;15.30;10.63;;;4.50;99.90;;;;;;5052030;28;20216;-69
2022/01/16 07:21:45;;;;;;;15.50;9.73;;;4.50;99.90;;;;;;5045793;28;20223;-69
2022/01/16 07:24:15;;;;;;;14.35;10.60;;;4.50;99.90;;;;;;5050897;28;20301;-69
2022/01/16 07:26:44;;;;;;;14.77;10.60;;;4.50;99.90;;;;;;5051733;28;20224;-69
2022/01/16 07:29:13;;;;;;;16.45;11.45;;;4.50;99.90;;;;;;5048938;28;20274;-69
2022/01/16 07:31:41;;;;;;;17.90;11.55;;;4.50;99.90;;;;;;5047995;28;20259;-69
2022/01/16 07:34:10;;;;;;;17.17;11.00;;;4.50;99.90;;;;;;5051776;28;20220;-69
2022/01/16 07:36:40;;;;;;;18.58;10.82;;;4.50;99.90;;;;;;5052050;28;20575;-69
2022/01/16 07:39:08;;;;;;;16.90;11.25;;;4.50;99.90;;;;;;5050815;28;20216;-69
2022/01/16 07:41:36;;;;;;;16.25;10.55;;;4.50;99.90;;;;;;5051696;28;20666;-69
2022/01/16 07:44:04;;;;;;;14.02;10.38;;;4.50;99.90;;;;;;5037484;28;20313;-69
2022/01/16 07:46:33;;;;;;;15.52;9.85;;;4.50;99.90;;;;;;5052071;28;20243;-69
2022/01/16 07:49:01;;;;;;;16.27;10.98;;;4.50;99.90;;;;;;5051477;28;20227;-69
2022/01/16 07:51:29;;;;;;;19.15;12.15;;;4.50;99.90;;;;;;5051876;28;20208;-69
2022/01/16 07:53:59;;;;;;;16.90;10.85;;;4.50;99.90;;;;;;5032777;28;20295;-69
2022/01/16 07:56:27;;;;;;;18.73;11.30;;;4.50;99.90;;;;;;5051528;28;20213;-69
2022/01/16 07:58:55;;;;;;;16.20;11.00;;;4.50;99.90;;;;;;5050853;28;20239;-69
2022/01/16 08:01:23;;;;;;;25.38;12.25;;;4.50;99.90;;;;;;5020974;28;20189;-69
2022/01/16 08:03:51;;;;;;;15.10;10.95;;;4.50;99.90;;;;;;5033296;28;20234;-69
2022/01/16 08:06:19;;;;;;;13.70;10.20;;;4.50;99.90;;;;;;5051346;28;20617;-69
2022/01/16 08:08:48;;;;;;;14.80;9.90;;;4.50;99.90;;;;;;5051280;28;20232;-69
2022/01/16 08:11:17;;;;;;;20.08;12.95;;;4.50;99.90;;;;;;5050824;28;20205;-69
2022/01/16 08:13:45;;;;;;;17.95;11.55;;;4.50;99.90;;;;;;5050891;28;20293;-69
2022/01/16 08:16:14;;;;;;;18.25;11.20;;;4.50;99.90;;;;;;5038362;28;20295;-69
2022/01/16 08:18:42;;;;;;;18.27;12.73;;;4.50;99.90;;;;;;5052078;28;20228;-69
2022/01/16 08:21:10;;;;;;;17.58;11.77;;;4.50;99.90;;;;;;5052530;28;20196;-69
2022/01/16 08:23:41;;;;;;;22.80;13.00;;;4.50;99.90;;;;;;5050907;28;20286;-69
2022/01/16 08:26:09;;;;;;;13.73;10.02;;;4.50;99.90;;;;;;5034904;28;20188;-69
2022/01/16 08:28:39;;;;;;;17.33;11.00;;;4.50;99.90;;;;;;5033460;28;20302;-69
2022/01/16 08:31:07;;;;;;;13.55;10.10;;;4.50;99.90;;;;;;5050551;28;20902;-69
2022/01/16 08:33:35;;;;;;;14.93;10.52;;;4.50;99.90;;;;;;5022281;28;20224;-69
2022/01/16 08:36:04;;;;;;;15.93;10.32;;;4.50;99.90;;;;;;5051589;28;20200;-69
2022/01/16 08:38:32;;;;;;;18.15;11.65;;;4.50;99.90;;;;;;5050888;28;20706;-69
2022/01/16 08:41:02;;;;;;;19.65;11.88;;;4.50;99.90;;;;;;5050901;28;20574;-69
2022/01/16 08:43:30;;;;;;;22.35;13.75;;;4.50;99.90;;;;;;5050818;28;20217;-69
2022/01/16 08:46:00;;;;;;;15.73;11.13;;;4.50;99.90;;;;;;5050436;28;20250;-69
2022/01/16 08:48:29;;;;;;;19.70;13.65;;;4.50;99.90;;;;;;5013654;28;20224;-69
2022/01/16 08:50:58;;;;;;;20.35;12.32;;;4.50;99.90;;;;;;5042831;28;20193;-69
2022/01/16 08:53:26;;;;;;;18.48;11.80;;;4.50;99.90;;;;;;5050233;28;20247;-69
2022/01/16 08:55:54;;;;;;;19.00;13.57;;;4.50;99.90;;;;;;5032283;28;20235;-69
2022/01/16 08:58:22;;;;;;;20.08;11.65;;;4.50;99.90;;;;;;5050295;28;20273;-69
2022/01/16 09:00:50;;;;;;;14.90;11.10;;;4.50;99.90;;;;;;5050721;28;20185;-69
2022/01/16 09:03:22;;;;;;;15.55;11.45;;;4.50;99.90;;;;;;5051228;28;20618;-69
2022/01/16 09:05:51;;;;;;;18.55;12.07;;;4.50;99.90;;;;;;5051391;28;20189;-69
2022/01/16 09:08:20;;;;;;;17.33;13.10;;;4.50;99.90;;;;;;5050410;28;20270;-69
2022/01/16 09:10:48;;;;;;;18.00;11.63;;;4.50;99.90;;;;;;5038711;28;20258;-69
2022/01/16 09:13:16;;;;;;;19.88;12.50;;;4.50;99.90;;;;;;5048410;28;20247;-69
2022/01/16 09:15:45;;;;;;;16.88;11.50;;;4.50;99.90;;;;;;5048923;28;20254;-69
2022/01/16 09:18:13;;;;;;;16.27;11.43;;;4.50;99.90;;;;;;5049177;28;20238;-69
2022/01/16 09:20:46;;;;;;;15.57;10.95;;;4.50;99.90;;;;;;5032263;28;20331;-69
2022/01/16 09:23:14;;;;;;;20.98;12.10;;;4.50;99.90;;;;;;5048034;28;20274;-69
2022/01/16 09:25:42;;;;;;;18.85;12.40;;;4.50;99.90;;;;;;5048110;28;20809;-69
2022/01/16 09:28:10;;;;;;;15.88;11.93;;;4.50;99.90;;;;;;5049144;28;20270;-69
2022/01/16 09:30:38;;;;;;;24.90;14.13;;;4.50;99.90;;;;;;5032450;28;20267;-69
2022/01/16 09:33:07;;;;;;;16.08;11.77;;;4.50;99.90;;;;;;5048878;28;20286;-69
2022/01/16 09:35:35;;;;;;;17.70;11.27;;;4.50;99.90;;;;;;5049900;28;20192;-69
2022/01/16 09:38:07;;;;;;;18.17;12.80;;;4.50;99.90;;;;;;5049385;28;20289;-69
2022/01/16 09:40:37;;;;;;;25.00;13.30;;;4.50;99.90;;;;;;5037257;28;20227;-69
2022/01/16 09:43:06;;;;;;;14.20;9.50;;;4.50;99.90;;;;;;5049245;28;20220;-69
2022/01/16 09:45:34;;;;;;;18.75;12.80;;;4.50;99.90;;;;;;5050492;28;20219;-69
2022/01/16 09:48:04;;;;;;;18.23;11.05;;;4.50;99.90;;;;;;5048132;28;20571;-69
2022/01/16 09:50:32;;;;;;;22.00;12.70;;;4.50;99.90;;;;;;5042495;28;20666;-69
2022/01/16 09:53:01;;;;;;;18.50;11.65;;;4.50;99.90;;;;;;5049912;28;20216;-69
2022/01/16 09:55:30;;;;;;;19.75;11.60;;;4.50;99.90;;;;;;5050264;28;20601;-69
2022/01/16 09:57:59;;;;;;;15.05;10.60;;;4.50;99.90;;;;;;5046156;28;20244;-69
2022/01/16 10:00:28;;;;;;;18.83;11.45;;;4.50;99.90;;;;;;5049658;28;20551;-69
2022/01/16 10:02:57;;;;;;;16.08;10.45;;;4.50;99.90;;;;;;5044467;28;20227;-69
2022/01/16 10:05:29;;;;;;;17.85;10.60;;;4.50;99.90;;;;;;5045341;28;20861;-69
2022/01/16 10:08:00;;;;;;;18.45;11.95;;;4.50;99.90;;;;;;5048031;28;20945;-69
2022/01/16 10:10:32;;;;;;;20.38;12.55;;;4.50;99.90;;;;;;5049106;28;20777;-69
2022/01/16 10:13:07;;;;;;;18.27;11.23;;;4.50;99.90;;;;;;5048722;28;20254;-69
2022/01/16 10:15:36;;;;;;;21.05;12.70;;;4.50;99.90;;;;;;5042594;28;20204;-69
2022/01/16 10:18:07;;;;;;;13.55;9.43;;;4.50;99.90;;;;;;5048545;28;20302;-69
2022/01/16 10:20:46;;;;;;;19.80;12.13;;;4.50;99.90;;;;;;5049619;28;20189;-69
2022/01/16 10:23:21;;;;;;;18.77;11.15;;;4.50;99.90;;;;;;5047978;28;20216;-69
2022/01/16 10:25:50;;;;;;;19.70;11.90;;;4.50;99.90;;;;;;5051322;28;20192;-69
2022/01/16 10:28:21;;;;;;;18.30;11.98;;;4.50;99.90;;;;;;5048787;28;20228;-69
2022/01/16 10:30:51;;;;;;;21.17;13.98;;;4.50;99.90;;;;;;5048780;28;20559;-69
2022/01/16 10:33:21;;;;;;;19.67;11.98;;;4.50;99.90;;;;;;5048157;28;20220;-69
2022/01/16 10:35:51;;;;;;;17.77;11.60;;;4.50;99.90;;;;;;5048716;28;20192;-69
2022/01/16 10:38:24;;;;;;;16.42;10.73;;;4.50;99.90;;;;;;5047428;28;20772;-69
2022/01/16 10:40:55;;;;;;;17.25;10.75;;;4.50;99.90;;;;;;5048725;28;20200;-69
2022/01/16 10:43:38;;;;;;;16.17;10.43;;;4.50;99.90;;;;;;5048705;28;20228;-69
2022/01/16 10:46:07;;;;;;;17.67;11.70;;;4.50;99.90;;;;;;5032527;28;20193;-69
2022/01/16 10:49:16;;;;;;;15.95;11.88;;;4.50;99.90;;;;;;5040700;28;20216;-69
2022/01/16 10:52:01;;;;;;;21.80;13.43;;;4.50;99.90;;;;;;5048805;28;20193;-69
2022/01/16 10:54:31;;;;;;;17.55;11.55;;;4.50;99.90;;;;;;5048116;28;20244;-69
2022/01/16 10:57:19;;;;;;;18.02;11.65;;;4.50;99.90;;;;;;5048187;28;20669;-69
2022/01/16 10:59:48;;;;;;;19.60;12.30;;;4.50;99.90;;;;;;5047922;28;20693;-69
2022/01/16 11:02:16;;;;;;;17.00;12.00;;;4.50;99.90;;;;;;5030111;28;20196;-69
2022/01/16 11:04:45;;;;;;;17.70;11.43;;;4.50;99.90;;;;;;5048220;28;20220;-69
2022/01/16 11:07:13;;;;;;;19.63;12.02;;;4.50;99.90;;;;;;5048871;28;20220;-69
2022/01/16 11:09:41;;;;;;;19.95;10.77;;;4.50;99.90;;;;;;5046497;28;20208;-69
2022/01/16 11:12:11;;;;;;;17.60;10.57;;;4.50;99.90;;;;;;5048595;28;20192;-69
2022/01/16 11:14:39;;;;;;;20.40;12.93;;;4.50;99.90;;;;;;5028249;28;20233;-69
2022/01/16 11:17:07;;;;;;;17.15;11.60;;;4.50;99.90;;;;;;5045660;28;20575;-69
2022/01/16 11:19:36;;;;;;;14.95;10.07;;;4.50;99.90;;;;;;5045222;28;20252;-69
2022/01/16 11:22:10;;;;;;;15.40;11.23;;;4.50;99.90;;;;;;5044714;28;20190;-69
2022/01/16 11:24:59;;;;;;;15.45;10.52;;;4.50;99.90;;;;;;5014906;28;20216;-69
2022/01/16 11:27:35;;;;;;;19.70;11.73;;;4.50;99.90;;;;;;5045908;28;20216;-69
2022/01/16 11:30:04;;;;;;;19.95;11.60;;;4.50;99.90;;;;;;5048055;28;20224;-69
2022/01/16 11:32:34;;;;;;;16.95;11.68;;;4.50;99.90;;;;;;5048257;28;20223;-69
2022/01/16 11:35:02;;;;;;;20.33;12.63;;;4.50;99.90;;;;;;5048232;28;20247;-69
2022/01/16 11:37:35;;;;;;;18.00;12.00;;;4.50;99.90;;;;;;5048519;28;20217;-69
2022/01/16 11:40:37;;;;;;;16.40;11.00;;;4.50;99.90;;;;;;5048264;28;20319;-69
2022/01/16 11:43:35;;;;;;;21.77;12.65;;;4.50;99.90;;;;;;5031215;28;20188;-69
2022/01/16 11:46:15;;;;;;;16.77;9.95;;;4.50;99.90;;;;;;5048426;28;20201;-69
2022/01/16 11:48:53;;;;;;;18.67;11.32;;;4.50;99.90;;;;;;5029725;28;20229;-69
2022/01/16 11:51:58;;;;;;;15.73;10.50;;;4.50;99.90;;;;;;5041625;28;20279;-69
2022/01/16 11:54:38;;;;;;;17.70;11.45;;;4.50;99.90;;;;;;5034744;28;20241;-69
2022/01/16 11:57:21;;;;;;;17.13;10.88;;;4.50;99.90;;;;;;5051578;28;20761;-69
2022/01/16 11:59:53;;;;;;;15.88;11.02;;;4.50;99.90;;;;;;5051589;28;20224;-69
2022/01/16 12:02:24;;;;;;;14.02;10.25;;;4.50;99.90;;;;;;5051050;28;20528;-69
2022/01/16 12:04:59;;;;;;;18.65;10.90;;;4.50;99.90;;;;;;5049831;28;20263;-69
2022/01/16 12:07:48;;;;;;;15.00;10.88;;;4.50;99.90;;;;;;5048537;28;20223;-69
2022/01/16 12:10:39;;;;;;;18.15;11.50;;;4.50;99.90;;;;;;5051714;28;20670;-69
2022/01/16 12:13:27;;;;;;;19.75;12.30;;;4.50;99.90;;;;;;5025733;28;20227;-69
2022/01/16 12:16:28;;;;;;;16.23;10.13;;;4.50;99.90;;;;;;5050616;28;20561;-69
2022/01/16 12:19:41;;;;;;;14.50;10.40;;;4.50;99.90;;;;;;5042531;28;20215;-69
2022/01/16 12:22:13;;;;;;;16.00;10.52;;;4.50;99.90;;;;;;5051347;28;20234;-69
2022/01/16 12:24:44;;;;;;;16.00;10.95;;;4.50;99.90;;;;;;5050128;28;20270;-69
2022/01/16 12:27:44;;;;;;;15.13;10.50;;;4.50;99.90;;;;;;5051183;28;20720;-69
2022/01/16 12:30:24;;;;;;;15.63;10.57;;;4.60;99.90;;;;;;5050710;28;20567;-69
2022/01/16 12:32:55;;;;;;;16.55;11.38;;;4.50;99.90;;;;;;5050456;28;20788;-69
2022/01/16 12:36:08;;;;;;;13.43;10.10;;;4.50;99.90;;;;;;5050670;28;20205;-69
2022/01/16 12:38:46;;;;;;;14.82;9.80;;;4.60;99.90;;;;;;5050126;28;20231;-69
2022/01/16 12:41:17;;;;;;;17.27;9.63;;;4.60;99.90;;;;;;5049673;28;20184;-69
2022/01/16 12:43:52;;;;;;;15.52;10.30;;;4.50;99.90;;;;;;5050237;28;20239;-69
2022/01/16 12:46:24;;;;;;;12.65;9.75;;;4.50;99.90;;;;;;5050132;28;20217;-69
2022/01/16 12:48:57;;;;;;;13.10;9.35;;;4.50;99.90;;;;;;5050600;28;20763;-69
2022/01/16 12:51:27;;;;;;;14.50;10.15;;;4.50;99.90;;;;;;5051406;28;20558;-69
2022/01/16 12:54:01;;;;;;;13.00;9.02;;;4.50;99.90;;;;;;5049912;28;20225;-69
2022/01/16 12:56:33;;;;;;;15.05;10.63;;;4.50;99.90;;;;;;5052952;28;20224;-69
2022/01/16 12:59:14;;;;;;;13.75;9.23;;;4.50;99.90;;;;;;5035627;28;20302;-69
2022/01/16 13:01:48;;;;;;;12.98;9.52;;;4.50;99.90;;;;;;5050479;28;20196;-69
2022/01/16 13:04:28;;;;;;;13.82;9.57;;;4.60;99.90;;;;;;5050381;28;20656;-69
2022/01/16 13:06:59;;;;;;;15.77;9.35;;;4.50;99.90;;;;;;5052388;28;20295;-69
2022/01/16 13:09:29;;;;;;;17.15;10.40;;;4.50;99.90;;;;;;5051389;28;20231;-69
2022/01/16 13:12:00;;;;;;;13.60;9.57;;;4.50;99.90;;;;;;5032491;28;20322;-69
2022/01/16 13:14:30;;;;;;;12.85;8.10;;;4.50;99.90;;;;;;5049160;28;20224;-69
2022/01/16 13:17:00;;;;;;;14.30;8.95;;;4.60;99.90;;;;;;5048980;28;20212;-69
2022/01/16 13:19:38;;;;;;;14.77;9.80;;;4.60;99.90;;;;;;5047725;28;20224;-69
2022/01/16 13:22:11;;;;;;;15.18;9.35;;;4.50;99.90;;;;;;5044348;28;20203;-69
2022/01/16 13:24:43;;;;;;;14.07;9.35;;;4.50;99.90;;;;;;5049302;28;20224;-69
2022/01/16 13:27:14;;;;;;;16.52;10.85;;;4.50;99.90;;;;;;5050149;28;20681;-69
2022/01/16 13:29:44;;;;;;;15.25;8.90;;;4.60;99.90;;;;;;5049867;28;20274;-69
2022/01/16 13:32:14;;;;;;;14.00;9.70;;;4.60;99.90;;;;;;5047805;28;20192;-69
2022/01/16 13:34:45;;;;;;;14.63;9.15;;;4.50;99.90;;;;;;5048013;28;20278;-69
2022/01/16 13:37:17;;;;;;;11.85;8.20;;;4.50;99.90;;;;;;5050037;28;20217;-69
2022/01/16 13:39:49;;;;;;;13.18;9.68;;;4.60;99.90;;;;;;5030611;28;20220;-69